Time;durP1;ratioP1;P1;durP2;ratioP2;P2;SDS_P1;SDS_P2;PMS_P1;PMS_P2;Temp;Humidity;BMP_temperature;BMP_pressure;BME280_temperature;BME280_humidity;BME280_pressure;Samples;Min_cycle;Max_cycle;Signal;HPM_P1;HPM_P2
2022/12/19 00:00:45;;;;;;;6.10;4.53;;;19.10;54.50;;;;;;5028373;28;93305;-84
2022/12/19 00:03:10;;;;;;;5.38;4.50;;;19.10;54.60;;;;;;5019845;27;87026;-85
2022/12/19 00:05:38;;;;;;;6.38;4.43;;;19.10;54.40;;;;;;5027251;27;90304;-84
2022/12/19 00:08:04;;;;;;;6.57;4.60;;;19.00;54.40;;;;;;5018777;27;90766;-83
2022/12/19 00:10:30;;;;;;;4.75;4.10;;;19.00;54.30;;;;;;5028814;28;86983;-86
2022/12/19 00:12:55;;;;;;;7.60;4.32;;;19.00;54.30;;;;;;5027151;28;87711;-83
2022/12/19 00:15:21;;;;;;;5.03;4.32;;;18.90;54.30;;;;;;5027867;27;88597;-84
2022/12/19 00:17:46;;;;;;;6.13;4.57;;;19.00;54.40;;;;;;5024418;27;87691;-83
2022/12/19 00:20:12;;;;;;;5.30;4.50;;;18.90;54.40;;;;;;5028285;27;87558;-84
2022/12/19 00:22:37;;;;;;;6.45;5.18;;;18.90;54.60;;;;;;5029244;28;86707;-83
2022/12/19 00:25:03;;;;;;;5.65;4.60;;;18.90;54.50;;;;;;5028228;27;88361;-85
2022/12/19 00:27:34;;;;;;;5.95;4.85;;;18.90;54.50;;;;;;5028482;27;87609;-83
2022/12/19 00:29:59;;;;;;;5.07;4.30;;;18.90;54.30;;;;;;5027797;27;88717;-84
2022/12/19 00:32:25;;;;;;;4.55;3.95;;;18.80;54.50;;;;;;5027944;27;87855;-85
2022/12/19 00:34:50;;;;;;;5.72;4.70;;;18.80;54.30;;;;;;5028700;28;87966;-84
2022/12/19 00:37:16;;;;;;;6.93;5.00;;;18.80;54.40;;;;;;5028215;27;88581;-85
2022/12/19 00:39:41;;;;;;;5.72;4.45;;;18.80;54.50;;;;;;5028816;27;87239;-84
2022/12/19 00:42:07;;;;;;;5.60;4.22;;;18.80;54.40;;;;;;5027837;27;87373;-84
2022/12/19 00:44:33;;;;;;;5.50;4.35;;;18.80;54.40;;;;;;5027835;27;87733;-84
2022/12/19 00:46:58;;;;;;;5.22;4.30;;;18.70;54.40;;;;;;5028826;28;87804;-85
2022/12/19 00:49:24;;;;;;;5.65;4.75;;;18.70;54.30;;;;;;5028792;27;87519;-83
2022/12/19 00:51:50;;;;;;;5.93;4.38;;;18.70;54.60;;;;;;5027350;27;87447;-85
2022/12/19 00:54:15;;;;;;;4.68;4.13;;;18.70;54.40;;;;;;5026028;27;91458;-84
2022/12/19 00:56:41;;;;;;;5.15;4.07;;;18.70;54.50;;;;;;5027756;27;89267;-84
2022/12/19 00:59:14;;;;;;;5.25;4.28;;;18.70;54.40;;;;;;5028034;27;87422;-84
2022/12/19 01:01:40;;;;;;;4.90;4.22;;;18.70;54.60;;;;;;5028472;28;87287;-85
2022/12/19 01:04:12;;;;;;;5.57;4.70;;;18.60;54.40;;;;;;5028039;27;88406;-85
2022/12/19 01:06:37;;;;;;;4.63;3.88;;;18.70;54.50;;;;;;5027324;27;87924;-84
2022/12/19 01:09:03;;;;;;;5.10;4.00;;;18.60;54.50;;;;;;5028141;27;87684;-84
2022/12/19 01:14:14;;;;;;;5.25;4.30;;;18.60;54.50;;;;;;5027974;27;87971;-84
2022/12/19 01:16:40;;;;;;;4.80;4.28;;;18.60;54.30;;;;;;5060685;27;91123;-85
2022/12/19 01:19:06;;;;;;;4.78;4.22;;;18.60;54.20;;;;;;5027263;27;88700;-84
2022/12/19 01:21:34;;;;;;;5.85;4.43;;;18.60;54.40;;;;;;5027130;27;87196;-84
2022/12/19 01:24:01;;;;;;;5.53;4.43;;;18.60;54.30;;;;;;5027101;27;87525;-84
2022/12/19 01:26:26;;;;;;;4.93;4.15;;;18.60;54.30;;;;;;5026780;27;87956;-84
2022/12/19 01:28:54;;;;;;;5.07;3.75;;;18.60;54.40;;;;;;5028542;28;87653;-84
2022/12/19 01:31:20;;;;;;;5.47;4.22;;;18.50;54.30;;;;;;5027743;27;87584;-83
2022/12/19 01:33:46;;;;;;;4.90;4.10;;;18.50;54.50;;;;;;5027736;27;88966;-83
2022/12/19 01:36:12;;;;;;;5.85;3.92;;;18.50;54.50;;;;;;5027530;27;87818;-85
2022/12/19 01:38:37;;;;;;;5.72;3.80;;;18.50;54.50;;;;;;5027933;27;87286;-84
2022/12/19 01:41:03;;;;;;;5.32;4.50;;;18.50;54.50;;;;;;5026906;28;87541;-84
2022/12/19 01:43:32;;;;;;;5.00;4.03;;;18.50;54.40;;;;;;5027345;27;93871;-83
2022/12/19 01:46:02;;;;;;;4.90;4.10;;;18.50;54.50;;;;;;5027118;27;92155;-85
2022/12/19 01:48:32;;;;;;;5.90;3.92;;;18.50;54.60;;;;;;5028231;27;87695;-83
2022/12/19 01:51:03;;;;;;;4.63;4.13;;;18.40;54.50;;;;;;5026286;27;87539;-84
2022/12/19 01:54:00;;;;;;;4.60;4.10;;;18.40;54.50;;;;;;5027295;27;88931;-83
2022/12/19 01:56:30;;;;;;;4.97;3.78;;;18.40;54.60;;;;;;5026661;27;87787;-84
2022/12/19 01:58:59;;;;;;;5.18;4.00;;;18.40;54.60;;;;;;5028117;28;87433;-85
2022/12/19 02:01:24;;;;;;;4.93;3.97;;;18.40;54.50;;;;;;5026822;27;87252;-83
2022/12/19 02:03:51;;;;;;;5.35;4.25;;;18.40;54.60;;;;;;5027413;27;87631;-84
2022/12/19 02:06:18;;;;;;;4.70;3.80;;;18.40;54.50;;;;;;5025565;27;87613;-85
2022/12/19 02:08:46;;;;;;;4.35;3.90;;;18.40;54.60;;;;;;5026548;27;88387;-85
2022/12/19 02:11:11;;;;;;;4.72;4.00;;;18.40;54.50;;;;;;5026807;27;87167;-84
2022/12/19 02:13:38;;;;;;;4.18;3.78;;;18.40;54.70;;;;;;5028514;28;88126;-83
2022/12/19 02:16:25;;;;;;;4.75;4.00;;;18.40;54.70;;;;;;5042532;27;91562;-83
2022/12/19 02:18:51;;;;;;;4.43;4.03;;;18.30;54.70;;;;;;5026463;27;87540;-84
2022/12/19 02:21:19;;;;;;;5.20;3.88;;;18.30;54.70;;;;;;5026669;27;87499;-84
2022/12/19 02:24:30;;;;;;;5.20;4.20;;;18.30;54.80;;;;;;5026700;27;88239;-84
2022/12/19 02:27:29;;;;;;;4.05;3.42;;;18.30;54.90;;;;;;5027222;27;88433;-83
2022/12/19 02:30:09;;;;;;;5.20;3.90;;;18.30;54.90;;;;;;5027191;27;87095;-83
2022/12/19 02:32:55;;;;;;;5.18;3.78;;;18.30;54.70;;;;;;5027872;27;87205;-84
2022/12/19 02:35:37;;;;;;;4.10;3.70;;;18.40;54.70;;;;;;5027936;27;89612;-84
2022/12/19 02:38:20;;;;;;;4.57;4.00;;;18.30;55.40;;;;;;5028540;27;89802;-82
2022/12/19 02:40:58;;;;;;;4.32;3.72;;;18.30;54.90;;;;;;5028912;28;87210;-84
2022/12/19 02:43:28;;;;;;;4.97;4.10;;;18.30;54.80;;;;;;5027697;27;87246;-85
2022/12/19 02:45:56;;;;;;;6.35;4.10;;;18.20;54.80;;;;;;5028049;27;88549;-83
2022/12/19 02:48:23;;;;;;;5.00;3.78;;;18.30;55.50;;;;;;5027165;27;88895;-85
2022/12/19 02:50:48;;;;;;;5.00;3.80;;;18.30;54.70;;;;;;5027783;27;86987;-84
2022/12/19 02:53:14;;;;;;;5.70;4.32;;;18.30;54.70;;;;;;5031693;27;87426;-85
2022/12/19 02:55:46;;;;;;;4.72;3.50;;;18.30;54.80;;;;;;5031679;28;88337;-83
2022/12/19 02:58:27;;;;;;;4.68;3.80;;;18.20;54.70;;;;;;5031207;27;87869;-85
2022/12/19 03:01:03;;;;;;;4.97;4.00;;;18.20;54.60;;;;;;5030704;27;88114;-85
2022/12/19 03:03:45;;;;;;;4.15;3.60;;;18.20;54.70;;;;;;5018640;27;87465;-85
2022/12/19 03:06:13;;;;;;;4.43;3.58;;;18.20;54.90;;;;;;5019431;27;88689;-84
2022/12/19 03:09:05;;;;;;;4.03;3.55;;;18.20;54.80;;;;;;5030663;27;87366;-86
2022/12/19 03:11:35;;;;;;;5.28;4.32;;;18.20;55.00;;;;;;4987961;28;87247;-84
2022/12/19 03:14:11;;;;;;;4.30;3.78;;;18.20;55.00;;;;;;4988547;28;87602;-84
2022/12/19 03:16:37;;;;;;;4.38;3.40;;;18.10;54.90;;;;;;4987521;28;92818;-84
2022/12/19 03:19:07;;;;;;;4.80;3.85;;;18.10;54.90;;;;;;4987819;28;87314;-83
2022/12/19 03:21:40;;;;;;;4.55;3.90;;;18.20;55.00;;;;;;4987752;28;87558;-83
2022/12/19 03:24:08;;;;;;;3.85;3.30;;;18.20;54.80;;;;;;5003312;28;90908;-85
2022/12/19 03:26:47;;;;;;;5.10;3.78;;;18.10;55.60;;;;;;4986482;28;89869;-83
2022/12/19 03:29:20;;;;;;;;;;;18.20;55.00;;;;;;4987282;28;89252;-85
2022/12/19 03:31:46;;;;;;;3.65;3.28;;;18.10;54.90;;;;;;4989487;28;87295;-84
2022/12/19 03:34:27;;;;;;;4.50;3.95;;;18.10;54.80;;;;;;4985796;28;87572;-85
2022/12/19 03:36:57;;;;;;;4.95;3.90;;;18.20;54.80;;;;;;4986795;28;87956;-85
2022/12/19 03:39:25;;;;;;;3.95;3.40;;;18.10;54.80;;;;;;4986990;28;88252;-84
2022/12/19 03:44:39;;;;;;;3.97;3.47;;;18.10;54.90;;;;;;4987007;28;87137;-83
2022/12/19 03:47:18;;;;;;;4.10;3.67;;;18.10;54.90;;;;;;4986350;28;88666;-83
2022/12/19 03:49:44;;;;;;;3.97;3.45;;;18.10;54.80;;;;;;5028367;28;88343;-82
2022/12/19 03:52:32;;;;;;;4.72;3.90;;;18.10;55.00;;;;;;5029527;27;88182;-83
2022/12/19 03:55:28;;;;;;;5.55;3.40;;;18.10;55.00;;;;;;5029056;27;88099;-82
2022/12/19 03:58:05;;;;;;;4.32;3.78;;;18.20;55.00;;;;;;5034114;27;89697;-81
2022/12/19 04:00:34;;;;;;;4.18;3.33;;;18.20;54.70;;;;;;5028696;27;87866;-83
2022/12/19 04:03:00;;;;;;;3.83;3.33;;;18.20;55.10;;;;;;5028507;27;87397;-82
2022/12/19 04:05:27;;;;;;;4.45;3.75;;;18.20;55.50;;;;;;5028506;27;87506;-83
2022/12/19 04:07:57;;;;;;;4.10;3.38;;;18.20;55.70;;;;;;5029911;28;87606;-83
2022/12/19 04:10:24;;;;;;;;;;;18.20;55.70;;;;;;5029836;27;87977;-84
2022/12/19 04:12:56;;;;;;;5.35;4.40;;;18.20;55.90;;;;;;5030466;27;87382;-84
2022/12/19 04:15:47;;;;;;;6.43;3.97;;;18.20;56.10;;;;;;5028787;27;88103;-84
2022/12/19 04:18:14;;;;;;;4.57;3.75;;;18.20;56.00;;;;;;5028980;27;89333;-84
2022/12/19 04:20:44;;;;;;;4.90;3.83;;;18.20;56.00;;;;;;5028203;27;88825;-84
2022/12/19 04:23:20;;;;;;;4.55;3.85;;;18.20;55.80;;;;;;5027948;27;87362;-84
2022/12/19 04:25:50;;;;;;;4.22;3.75;;;18.20;55.90;;;;;;5029181;28;87473;-83
2022/12/19 04:28:28;;;;;;;5.07;3.85;;;18.10;56.00;;;;;;5028577;27;89194;-83
2022/12/19 04:30:54;;;;;;;5.00;4.07;;;18.20;56.00;;;;;;5028480;27;88196;-85
2022/12/19 04:33:19;;;;;;;7.32;4.20;;;18.20;55.60;;;;;;5028768;27;87386;-82
2022/12/19 04:35:45;;;;;;;4.60;4.20;;;18.20;55.60;;;;;;5028992;27;88574;-83
2022/12/19 04:38:11;;;;;;;6.35;4.35;;;18.20;55.60;;;;;;5028002;27;88961;-83
2022/12/19 04:40:37;;;;;;;5.00;4.28;;;18.20;55.80;;;;;;5028905;28;87524;-84
2022/12/19 04:43:02;;;;;;;3.90;3.47;;;18.20;55.80;;;;;;5026768;27;88040;-84
2022/12/19 04:45:28;;;;;;;4.88;3.42;;;18.20;55.70;;;;;;5026702;27;87194;-84
2022/12/19 04:47:54;;;;;;;5.47;4.32;;;18.20;56.20;;;;;;5028506;27;89023;-84
2022/12/19 04:50:19;;;;;;;4.93;3.90;;;18.20;56.10;;;;;;5028728;27;87770;-85
2022/12/19 04:52:45;;;;;;;3.97;3.53;;;18.20;56.20;;;;;;5029807;28;87472;-83
2022/12/19 04:55:10;;;;;;;4.65;3.88;;;18.20;56.20;;;;;;5028421;27;87368;-83
2022/12/19 04:57:36;;;;;;;8.10;3.75;;;18.20;55.80;;;;;;5028173;27;87792;-85
2022/12/19 05:00:05;;;;;;;4.05;3.58;;;18.30;55.90;;;;;;5028296;27;87712;-83
2022/12/19 05:02:31;;;;;;;5.43;3.70;;;18.20;55.70;;;;;;5029237;27;87298;-83
2022/12/19 05:04:57;;;;;;;5.13;3.65;;;18.20;56.00;;;;;;5029079;28;87689;-84
2022/12/19 05:07:22;;;;;;;5.45;4.20;;;18.20;56.00;;;;;;5042714;27;90925;-83
2022/12/19 05:09:48;;;;;;;4.45;3.30;;;18.20;56.10;;;;;;5027852;27;93474;-84
2022/12/19 05:12:14;;;;;;;4.38;3.95;;;18.20;56.10;;;;;;5028459;27;87483;-83
2022/12/19 05:14:40;;;;;;;4.47;3.38;;;18.20;56.00;;;;;;5026885;27;87512;-82
2022/12/19 05:17:05;;;;;;;4.95;3.60;;;18.20;56.00;;;;;;5028326;27;88494;-83
2022/12/19 05:19:31;;;;;;;6.65;3.67;;;18.20;55.90;;;;;;5028913;28;86998;-83
2022/12/19 05:21:56;;;;;;;4.13;3.53;;;18.20;55.80;;;;;;5028802;27;87716;-83
2022/12/19 05:24:22;;;;;;;5.63;3.72;;;18.20;55.80;;;;;;5028341;27;87486;-84
2022/12/19 05:26:48;;;;;;;4.05;3.33;;;18.20;55.80;;;;;;5027487;27;88508;-84
2022/12/19 05:29:14;;;;;;;4.65;3.90;;;18.20;55.70;;;;;;5027819;27;87826;-84
2022/12/19 05:31:40;;;;;;;5.13;3.95;;;18.20;55.90;;;;;;5027930;28;87927;-83
2022/12/19 05:34:05;;;;;;;4.13;3.22;;;18.20;55.90;;;;;;5028767;27;87839;-83
2022/12/19 05:36:31;;;;;;;4.07;3.53;;;18.20;55.80;;;;;;5028142;27;88721;-84
2022/12/19 05:38:57;;;;;;;3.92;3.40;;;18.20;55.70;;;;;;5027801;27;87507;-82
2022/12/19 05:41:23;;;;;;;3.60;3.13;;;18.20;55.80;;;;;;5028822;27;87711;-83
2022/12/19 05:43:51;;;;;;;4.13;3.35;;;18.20;55.70;;;;;;5028658;28;87683;-83
2022/12/19 05:46:17;;;;;;;3.60;3.10;;;18.20;55.70;;;;;;5027974;27;88460;-83
2022/12/19 05:48:42;;;;;;;3.83;3.25;;;18.20;55.80;;;;;;5028462;27;88121;-83
2022/12/19 05:51:08;;;;;;;5.18;3.47;;;18.20;55.80;;;;;;5027667;27;87040;-83
2022/12/19 05:53:38;;;;;;;4.47;3.50;;;18.20;55.70;;;;;;5027692;27;87340;-83
2022/12/19 05:56:12;;;;;;;3.92;3.05;;;18.20;55.60;;;;;;5026700;27;88589;-83
2022/12/19 05:58:39;;;;;;;3.97;3.42;;;18.10;55.60;;;;;;5027761;28;87811;-84
2022/12/19 06:01:08;;;;;;;5.03;3.33;;;18.20;55.60;;;;;;5027456;27;87388;-83
2022/12/19 06:03:34;;;;;;;3.17;2.83;;;18.20;55.50;;;;;;5027718;27;87555;-84
2022/12/19 06:06:04;;;;;;;3.60;3.15;;;18.20;55.70;;;;;;5027708;27;87237;-83
2022/12/19 06:08:31;;;;;;;3.88;2.80;;;18.20;55.60;;;;;;5027284;27;89951;-84
2022/12/19 06:11:00;;;;;;;5.60;3.47;;;18.20;55.60;;;;;;5061398;27;87524;-84
2022/12/19 06:13:27;;;;;;;4.00;3.00;;;18.20;55.60;;;;;;5027914;27;89692;-83
2022/12/19 06:16:13;;;;;;;3.17;2.88;;;18.20;55.50;;;;;;5027534;27;88515;-83
2022/12/19 06:18:40;;;;;;;4.22;3.05;;;18.20;55.60;;;;;;5026346;27;87568;-83
2022/12/19 06:21:09;;;;;;;3.90;3.08;;;18.20;55.60;;;;;;5026657;27;88210;-84
2022/12/19 06:23:37;;;;;;;3.13;2.83;;;18.20;55.60;;;;;;5028288;27;87778;-83
2022/12/19 06:26:06;;;;;;;3.55;2.97;;;18.20;55.70;;;;;;5027882;28;87926;-83
2022/12/19 06:28:32;;;;;;;4.07;3.30;;;18.20;55.80;;;;;;5011531;28;92306;-83
2022/12/19 06:30:59;;;;;;;3.65;3.00;;;18.20;55.60;;;;;;5027980;27;87258;-84
2022/12/19 06:33:26;;;;;;;3.50;2.85;;;18.20;55.70;;;;;;5031041;27;87509;-84
2022/12/19 06:36:04;;;;;;;3.53;3.05;;;18.20;55.70;;;;;;5031320;27;88605;-84
2022/12/19 06:38:32;;;;;;;4.55;3.08;;;18.20;55.70;;;;;;5032058;27;88042;-83
2022/12/19 06:43:43;;;;;;;3.83;3.28;;;18.20;55.60;;;;;;5030524;28;91023;-83
2022/12/19 06:46:09;;;;;;;3.15;2.85;;;18.20;55.50;;;;;;5029568;27;88950;-83
2022/12/19 06:48:35;;;;;;;3.33;2.80;;;18.20;55.60;;;;;;5030966;27;88069;-84
2022/12/19 06:51:00;;;;;;;3.70;2.80;;;18.20;55.50;;;;;;5030762;27;87413;-82
2022/12/19 06:53:26;;;;;;;4.32;3.45;;;18.20;55.50;;;;;;5030911;27;87743;-84
2022/12/19 06:55:56;;;;;;;2.88;2.58;;;18.20;55.40;;;;;;5030987;28;88529;-84
2022/12/19 06:58:21;;;;;;;3.55;2.88;;;18.20;55.50;;;;;;5031542;27;88929;-83
2022/12/19 07:00:47;;;;;;;3.53;3.03;;;18.20;55.40;;;;;;5030711;27;87576;-84
2022/12/19 07:03:17;;;;;;;4.00;3.05;;;18.20;55.50;;;;;;5030465;27;86824;-83
2022/12/19 07:05:43;;;;;;;4.05;2.53;;;18.20;55.40;;;;;;5030800;27;89220;-84
2022/12/19 07:08:09;;;;;;;3.33;2.42;;;18.20;55.30;;;;;;5030570;27;88252;-82
2022/12/19 07:10:34;;;;;;;2.97;2.67;;;18.20;55.40;;;;;;5031146;28;88578;-83
2022/12/19 07:13:00;;;;;;;3.60;2.58;;;18.20;55.40;;;;;;5030251;27;88043;-84
2022/12/19 07:15:27;;;;;;;3.08;2.72;;;18.20;55.30;;;;;;5030902;27;88004;-83
2022/12/19 07:17:53;;;;;;;3.15;2.63;;;18.20;55.30;;;;;;5045861;27;90965;-84
2022/12/19 07:20:20;;;;;;;3.15;2.83;;;18.20;55.50;;;;;;5030386;27;88433;-83
2022/12/19 07:22:47;;;;;;;6.72;2.55;;;18.30;55.30;;;;;;5030952;28;87938;-83
2022/12/19 07:25:12;;;;;;;3.15;2.63;;;18.20;55.30;;;;;;5030256;27;87365;-83
2022/12/19 07:27:38;;;;;;;3.15;2.85;;;18.20;55.30;;;;;;5029555;27;87054;-84
2022/12/19 07:30:06;;;;;;;3.42;2.75;;;18.20;55.30;;;;;;5030689;27;87042;-83
2022/12/19 07:32:32;;;;;;;3.53;3.13;;;18.20;55.30;;;;;;5030013;27;87735;-83
2022/12/19 07:34:58;;;;;;;2.80;2.47;;;18.20;55.30;;;;;;5028488;28;89062;-82
2022/12/19 07:37:23;;;;;;;3.35;2.80;;;18.20;55.30;;;;;;5029964;27;88729;-83
2022/12/19 07:39:49;;;;;;;2.63;2.22;;;18.20;55.40;;;;;;5029892;27;87526;-83
2022/12/19 07:42:14;;;;;;;3.10;2.45;;;18.20;55.30;;;;;;5030166;27;87100;-83
2022/12/19 07:44:40;;;;;;;2.63;2.42;;;18.20;55.40;;;;;;5030347;27;88378;-83
2022/12/19 07:47:06;;;;;;;2.55;2.35;;;18.20;55.30;;;;;;5029949;27;87881;-83
2022/12/19 07:49:32;;;;;;;2.75;2.33;;;18.20;55.30;;;;;;5030048;28;86932;-84
2022/12/19 07:51:57;;;;;;;2.20;2.00;;;18.20;55.40;;;;;;5029669;27;87910;-84
2022/12/19 07:54:23;;;;;;;2.75;2.55;;;18.20;55.50;;;;;;5029103;27;88994;-84
2022/12/19 07:56:49;;;;;;;3.08;2.35;;;18.20;55.60;;;;;;5014821;27;87909;-84
2022/12/19 07:59:14;;;;;;;2.78;2.10;;;18.20;55.40;;;;;;5030437;27;88173;-83
2022/12/19 08:01:40;;;;;;;2.95;2.22;;;18.20;55.40;;;;;;5031091;28;87716;-84
2022/12/19 08:04:05;;;;;;;2.83;2.33;;;18.20;55.30;;;;;;5031742;27;88075;-86
2022/12/19 08:06:31;;;;;;;2.95;2.45;;;18.30;55.30;;;;;;5031020;27;88335;-87
2022/12/19 08:08:56;;;;;;;3.33;2.33;;;18.40;54.90;;;;;;5033174;27;87183;-86
2022/12/19 08:11:26;;;;;;;4.05;2.45;;;18.40;53.20;;;;;;5033839;27;87848;-85
2022/12/19 08:13:52;;;;;;;3.13;2.13;;;18.60;53.20;;;;;;5034220;28;88045;-84
2022/12/19 08:16:18;;;;;;;5.45;2.53;;;18.60;53.50;;;;;;5029644;27;87871;-83
2022/12/19 08:18:44;;;;;;;2.88;2.25;;;18.80;53.90;;;;;;5029577;27;86953;-84
2022/12/19 08:21:10;;;;;;;2.55;2.00;;;19.00;53.70;;;;;;5034755;27;90259;-85
2022/12/19 08:23:37;;;;;;;3.38;2.50;;;19.10;53.50;;;;;;5029233;27;88605;-83
2022/12/19 08:26:06;;;;;;;4.25;2.10;;;19.30;53.70;;;;;;5030548;28;91782;-84
2022/12/19 08:28:33;;;;;;;5.25;2.50;;;19.40;53.70;;;;;;5030115;28;87658;-83
2022/12/19 08:31:04;;;;;;;4.25;2.50;;;19.40;53.60;;;;;;5029813;27;87340;-84
2022/12/19 08:33:30;;;;;;;3.80;2.40;;;19.50;53.70;;;;;;5029855;27;89291;-85
2022/12/19 08:35:56;;;;;;;3.83;2.30;;;19.50;54.10;;;;;;5028818;27;87988;-84
2022/12/19 08:38:21;;;;;;;6.53;2.13;;;19.50;53.40;;;;;;5030454;27;87769;-85
2022/12/19 08:40:53;;;;;;;2.70;2.50;;;19.50;53.50;;;;;;5060438;27;89010;-85
2022/12/19 08:43:19;;;;;;;2.63;1.98;;;19.50;53.60;;;;;;5029288;27;88013;-83
2022/12/19 08:45:48;;;;;;;3.33;2.53;;;19.60;53.70;;;;;;5026891;27;86943;-84
2022/12/19 08:48:15;;;;;;;3.90;2.13;;;19.60;53.50;;;;;;5026181;27;88429;-85
2022/12/19 08:50:51;;;;;;;7.20;2.65;;;19.60;53.60;;;;;;5027739;27;88894;-82
2022/12/19 08:53:17;;;;;;;4.90;2.40;;;19.50;53.60;;;;;;5028934;27;87505;-84
2022/12/19 08:55:42;;;;;;;5.50;2.35;;;19.50;53.90;;;;;;5029134;28;88335;-83
2022/12/19 08:58:08;;;;;;;3.53;2.40;;;19.40;54.10;;;;;;5027002;27;87520;-81
2022/12/19 09:00:35;;;;;;;2.55;2.20;;;19.40;54.10;;;;;;5026269;27;87162;-82
2022/12/19 09:03:01;;;;;;;6.55;2.50;;;19.40;53.10;;;;;;5026752;27;90086;-82
2022/12/19 09:05:26;;;;;;;3.97;2.25;;;19.40;53.30;;;;;;5025715;27;89087;-83
2022/12/19 09:07:52;;;;;;;6.25;2.50;;;19.30;53.50;;;;;;4987550;27;87514;-82
2022/12/19 09:10:19;;;;;;;3.05;2.35;;;19.30;53.70;;;;;;4987824;27;88335;-82
2022/12/19 09:12:44;;;;;;;5.20;3.55;;;19.30;53.90;;;;;;4997590;28;89020;-81
2022/12/19 09:15:10;;;;;;;8.48;4.97;;;19.20;54.60;;;;;;5002119;27;88939;-83
2022/12/19 09:17:35;;;;;;;5.20;3.53;;;19.10;55.40;;;;;;5004723;27;87944;-82
2022/12/19 09:20:01;;;;;;;11.88;4.72;;;19.10;55.90;;;;;;5006208;28;87466;-82
2022/12/19 09:22:27;;;;;;;12.50;4.75;;;19.10;56.70;;;;;;5004705;27;87625;-82
2022/12/19 09:24:52;;;;;;;5.90;4.20;;;19.10;57.50;;;;;;5005504;27;87144;-82
2022/12/19 09:27:18;;;;;;;9.55;4.47;;;19.10;57.80;;;;;;5005181;27;87444;-81
2022/12/19 09:29:43;;;;;;;9.63;4.25;;;19.20;58.90;;;;;;5006679;27;87002;-81
2022/12/19 09:32:09;;;;;;;7.00;4.18;;;19.20;57.90;;;;;;5005896;27;88310;-81
2022/12/19 09:34:35;;;;;;;6.07;3.67;;;19.20;59.30;;;;;;5006648;28;87637;-81
2022/12/19 09:37:01;;;;;;;9.50;4.20;;;19.30;57.90;;;;;;5004998;27;88844;-82
2022/12/19 09:39:27;;;;;;;8.90;5.10;;;19.30;59.70;;;;;;5005353;27;87172;-81
2022/12/19 09:42:15;;;;;;;11.77;4.00;;;19.30;61.50;;;;;;5015761;27;87648;-80
2022/12/19 09:44:41;;;;;;;10.20;3.20;;;19.30;58.60;;;;;;5011160;27;89426;-81
2022/12/19 09:47:16;;;;;;;7.15;3.20;;;19.40;57.80;;;;;;5005179;27;87302;-82
2022/12/19 09:49:44;;;;;;;4.70;3.50;;;19.50;57.70;;;;;;5006085;28;88058;-81
2022/12/19 09:52:17;;;;;;;9.18;3.95;;;19.50;57.90;;;;;;5004911;27;87568;-82
2022/12/19 09:54:49;;;;;;;11.90;6.05;;;19.50;58.50;;;;;;5003769;28;89809;-81
2022/12/19 09:57:33;;;;;;;11.52;6.05;;;19.60;58.90;;;;;;5004588;27;87355;-81
2022/12/19 10:00:06;;;;;;;11.15;5.90;;;19.60;59.20;;;;;;5004944;27;87633;-83
2022/12/19 10:03:09;;;;;;;12.98;7.30;;;19.70;59.20;;;;;;5006704;27;91391;-80
2022/12/19 10:05:46;;;;;;;11.73;6.47;;;19.70;59.90;;;;;;5004166;27;89200;-81
2022/12/19 10:08:24;;;;;;;18.48;8.38;;;19.80;59.90;;;;;;5008677;27;87246;-81
2022/12/19 10:11:16;;;;;;;12.68;8.63;;;19.70;60.20;;;;;;5008503;28;90247;-82
2022/12/19 10:14:01;;;;;;;13.05;9.18;;;19.70;61.40;;;;;;5008619;28;92843;-82
2022/12/19 10:16:33;;;;;;;11.07;6.72;;;19.70;62.30;;;;;;5007943;27;88796;-81
2022/12/19 10:19:11;;;;;;;13.43;7.07;;;19.80;61.40;;;;;;5008540;27;87748;-82
2022/12/19 10:21:57;;;;;;;12.48;7.00;;;19.70;61.40;;;;;;5009318;27;87281;-82
2022/12/19 10:24:54;;;;;;;12.27;7.03;;;19.70;62.40;;;;;;5008636;27;88799;-82
2022/12/19 10:27:30;;;;;;;14.50;7.82;;;19.60;63.20;;;;;;4999226;27;89876;-81
2022/12/19 10:29:55;;;;;;;12.13;8.00;;;19.60;64.00;;;;;;5009182;27;88262;-83
2022/12/19 10:32:45;;;;;;;23.67;7.75;;;19.50;64.70;;;;;;5008622;27;87946;-81
2022/12/19 10:35:14;;;;;;;9.48;6.57;;;19.50;64.30;;;;;;5008433;27;88023;-82
2022/12/19 10:37:52;;;;;;;17.52;6.75;;;19.40;63.80;;;;;;5008883;28;89684;-82
2022/12/19 10:40:58;;;;;;;14.40;8.30;;;19.50;63.10;;;;;;5008320;27;87313;-82
2022/12/19 10:43:51;;;;;;;31.42;15.32;;;19.50;63.60;;;;;;4966130;28;87981;-82
2022/12/19 10:46:39;;;;;;;24.58;11.77;;;19.60;64.60;;;;;;4911680;28;88200;-83
2022/12/19 10:49:12;;;;;;;14.38;8.65;;;19.70;63.70;;;;;;4912216;28;88090;-81
2022/12/19 10:51:38;;;;;;;15.48;8.20;;;19.80;62.60;;;;;;4915672;28;87738;-82
2022/12/19 10:54:04;;;;;;;14.95;7.00;;;19.80;62.20;;;;;;4913532;28;87341;-81
2022/12/19 10:56:30;;;;;;;12.02;7.10;;;19.80;62.20;;;;;;4911727;28;88420;-80
2022/12/19 10:58:58;;;;;;;14.73;7.05;;;19.90;61.80;;;;;;4912837;28;89565;-80
2022/12/19 11:01:28;;;;;;;11.50;6.88;;;19.80;61.50;;;;;;4912494;28;87464;-81
2022/12/19 11:04:24;;;;;;;11.32;6.63;;;19.80;61.50;;;;;;4912678;28;87253;-81
2022/12/19 11:07:04;;;;;;;10.50;5.80;;;19.90;61.50;;;;;;4912503;28;88517;-81
2022/12/19 11:09:39;;;;;;;12.10;6.50;;;19.80;61.50;;;;;;4912497;28;90473;-81
2022/12/19 11:12:07;;;;;;;10.13;5.80;;;19.90;61.40;;;;;;4913540;28;87661;-80
2022/12/19 11:14:36;;;;;;;8.90;5.68;;;19.90;61.20;;;;;;4916873;28;88574;-83
2022/12/19 11:17:03;;;;;;;11.43;5.67;;;19.90;61.10;;;;;;4915614;28;87895;-82
2022/12/19 11:19:32;;;;;;;11.63;5.38;;;19.90;61.20;;;;;;4916259;28;94041;-82
2022/12/19 11:22:03;;;;;;;12.32;5.45;;;19.90;60.80;;;;;;4944728;28;89117;-81
2022/12/19 11:24:34;;;;;;;11.27;5.47;;;20.00;61.20;;;;;;4993405;28;87512;-82
2022/12/19 11:27:01;;;;;;;7.55;4.70;;;20.00;60.90;;;;;;4986798;28;88440;-81
2022/12/19 11:29:48;;;;;;;12.02;5.35;;;20.10;60.70;;;;;;4987325;28;88354;-82
2022/12/19 11:32:40;;;;;;;6.93;4.72;;;20.10;60.70;;;;;;4988461;28;93782;-82
2022/12/19 11:35:17;;;;;;;9.77;4.72;;;20.20;60.50;;;;;;4981699;28;87965;-81
2022/12/19 11:37:54;;;;;;;11.77;5.45;;;20.30;60.20;;;;;;4984098;28;92628;-81
2022/12/19 11:40:31;;;;;;;15.23;5.25;;;20.40;60.00;;;;;;4984383;28;88052;-82
2022/12/19 11:43:04;;;;;;;17.55;5.63;;;20.40;59.80;;;;;;4983865;28;87518;-81
2022/12/19 11:46:11;;;;;;;14.38;5.70;;;20.40;59.70;;;;;;4982339;28;87543;-82
2022/12/19 11:48:42;;;;;;;16.15;5.57;;;20.40;59.70;;;;;;4930972;28;88583;-81
2022/12/19 11:51:32;;;;;;;12.65;5.70;;;20.40;59.50;;;;;;4934845;28;87341;-83
2022/12/19 11:54:48;;;;;;;12.13;5.13;;;20.40;59.20;;;;;;4935077;28;87638;-83
2022/12/19 11:57:13;;;;;;;12.65;5.57;;;20.40;59.10;;;;;;4904485;28;87844;-83
2022/12/19 11:59:39;;;;;;;14.00;6.68;;;20.40;59.40;;;;;;4904955;28;87396;-83
2022/12/19 12:02:20;;;;;;;12.73;5.72;;;20.30;59.20;;;;;;4905029;28;87500;-83
2022/12/19 12:05:15;;;;;;;11.00;5.30;;;20.30;59.40;;;;;;4905609;28;87479;-83
2022/12/19 12:07:41;;;;;;;10.15;4.88;;;20.30;59.60;;;;;;4905114;28;91005;-82
2022/12/19 12:10:15;;;;;;;15.40;5.38;;;20.30;59.60;;;;;;4905601;28;87593;-82
2022/12/19 12:13:17;;;;;;;12.82;5.97;;;20.30;59.60;;;;;;4905808;28;88879;-82
2022/12/19 12:15:52;;;;;;;16.65;5.43;;;20.30;59.50;;;;;;4905563;28;88632;-82
2022/12/19 12:18:44;;;;;;;20.40;6.57;;;20.40;59.10;;;;;;4905002;28;87673;-83
2022/12/19 12:21:21;;;;;;;14.27;6.10;;;20.40;59.00;;;;;;4896201;28;91468;-82
2022/12/19 12:23:59;;;;;;;12.07;6.13;;;20.40;58.90;;;;;;4904724;28;87753;-83
2022/12/19 12:26:34;;;;;;;17.52;6.32;;;20.40;58.90;;;;;;4940075;28;87809;-83
2022/12/19 12:29:19;;;;;;;12.70;5.72;;;20.40;58.90;;;;;;4945546;28;87181;-82
2022/12/19 12:32:31;;;;;;;13.80;5.80;;;20.40;58.80;;;;;;4972487;28;92872;-83
2022/12/19 12:35:15;;;;;;;18.50;6.47;;;20.40;58.90;;;;;;4987078;28;92660;-82
2022/12/19 12:38:35;;;;;;;14.50;6.10;;;20.40;58.90;;;;;;4986540;28;87411;-83
2022/12/19 12:41:14;;;;;;;18.73;5.97;;;20.40;58.70;;;;;;4982837;28;90790;-85
2022/12/19 12:43:48;;;;;;;15.20;6.35;;;20.40;58.90;;;;;;4983966;28;89316;-85
2022/12/19 12:46:18;;;;;;;11.57;5.43;;;20.40;58.80;;;;;;4984136;28;89175;-84
2022/12/19 12:49:05;;;;;;;11.77;5.30;;;20.40;59.00;;;;;;4983964;28;88459;-84
2022/12/19 12:51:34;;;;;;;12.77;5.63;;;20.40;59.10;;;;;;4984072;28;87382;-84
2022/12/19 12:54:09;;;;;;;16.60;5.90;;;20.40;59.00;;;;;;4983972;28;88523;-84
2022/12/19 12:56:36;;;;;;;14.38;5.53;;;20.40;59.10;;;;;;4984012;28;87520;-83
2022/12/19 12:59:05;;;;;;;16.42;6.63;;;20.40;59.00;;;;;;4984256;28;87527;-85
2022/12/19 13:01:39;;;;;;;15.15;5.57;;;20.40;59.00;;;;;;4983832;28;90260;-84
2022/12/19 13:04:17;;;;;;;12.57;5.78;;;20.40;59.00;;;;;;4983716;28;90152;-84
2022/12/19 13:06:48;;;;;;;16.65;6.30;;;20.40;58.90;;;;;;4983544;28;88573;-83
2022/12/19 13:09:17;;;;;;;13.52;6.05;;;20.40;59.00;;;;;;4983461;28;88596;-84
2022/12/19 13:14:36;;;;;;;14.77;5.28;;;20.40;58.90;;;;;;4990569;27;87484;-84
2022/12/19 13:17:18;;;;;;;12.88;5.60;;;20.40;58.80;;;;;;5007539;28;89219;-86